Información del aeropuerto LIPZ

Información de pista
Pista 04L Longitud 9121 ft Anchura 148 ft
Elevación 7 ft Umbral 308 ft Rumbo 42
Pista 22R Longitud 9121 ft Anchura 148 ft
Elevación 7 ft Umbral 0 ft Rumbo 222
Pista 04R Longitud 10827 ft Anchura 148 ft
Elevación 7 ft Umbral 0 ft Rumbo 42
Pista 22L Longitud 10827 ft Anchura 148 ft
Elevación 7 ft Umbral 0 ft Rumbo 222
Frecuencias del aeropuerto
Tipo APP Nombre APP Frecuencia 118.9 MHZ
Tipo ATIS Nombre ATIS Frecuencia 122.225 MHZ
Tipo GND Nombre GND Frecuencia 121.7 MHZ
Tipo TWR Nombre TWR Frecuencia 120.2 MHZ
Radioayudas del aeropuerto
Tipo VOR-DME Nombre Tessera Frecuencia 115300 KHZ
Tipo NDB Nombre Venezia Frecuencia 379 KHZ
Información meteorológica del aeropuerto y NOTAM
ADDS - METARS form results

(0132 UTC 06 May 2021)
Data provider http://aviationweather.gov/metar/data/
 
METAR text: LIPZ 060120Z 05008KT CAVOK 12/10 Q1009 NOSIG
Conditions at: LIPZ (VENEZIA/TESSERA , IT) observed 0120 UTC 06 May 2021
Temperature: 12.0°C (54°F)
Dewpoint: 10.0°C (50°F) [RH = 88%]
Pressure (altimeter): 29.79 inches Hg (1009.0 mb)
Winds: from the NE (50 degrees) at 9 MPH (8 knots; 4.1 m/s)
Visibility: 6 or more miles (10+ km)
Ceiling: ceiling and visibility are OK
Clouds: unknown
Weather: no significant weather observed at this time

METAR text: LIPZ 060050Z 04008KT CAVOK 12/10 Q1009 NOSIG
Conditions at: LIPZ (VENEZIA/TESSERA , IT) observed 0050 UTC 06 May 2021
Temperature: 12.0°C (54°F)
Dewpoint: 10.0°C (50°F) [RH = 88%]
Pressure (altimeter): 29.79 inches Hg (1009.0 mb)
Winds: from the NE (40 degrees) at 9 MPH (8 knots; 4.1 m/s)
Visibility: 6 or more miles (10+ km)
Ceiling: ceiling and visibility are OK
Clouds: unknown
Weather: no significant weather observed at this time

Forecast for: LIPZ (VENEZIA/TESSERA , IT)
Text: TAF LIPZ 052300Z 0600/0706 08010KT 9999 SCT040
Forecast period: 0000 to 1200 UTC 06 May 2021
Forecast type: FROM: standard forecast or significant change
Winds: from the E (80 degrees) at 12 MPH (10 knots; 5.1 m/s)
Visibility: 6 or more miles (10+ km)
Ceiling: at least 12,000 feet AGL
Clouds: scattered clouds at 4000 feet AGL
Weather: no significant weather forecast for this period
Text: BECMG 0612/0614 15010KT
Forecast period: 1200 to 1800 UTC 06 May 2021
Forecast type: BECOMING: Conditions expected to become as follows by 1400 UTC 06 May 2021
Winds: from the SSE (150 degrees) at 12 MPH (10 knots; 5.1 m/s)
Visibility: 6 or more miles (10+ km)
Ceiling: at least 12,000 feet AGL
Clouds: scattered clouds at 4000 feet AGL
Weather: no significant weather forecast for this period
Text: BECMG 0618/0620 VRB05KT
Forecast period: 1800 UTC 06 May 2021 to 0600 UTC 07 May 2021
Forecast type: BECOMING: Conditions expected to become as follows by 2000 UTC 06 May 2021
Winds: variable direction winds at 6 MPH (5 knots; 2.6 m/s)
Visibility: 6 or more miles (10+ km)
Ceiling: at least 12,000 feet AGL
Clouds: scattered clouds at 4000 feet AGL
Weather: no significant weather forecast for this period